createdAt,value
2022-08-02T00:01:10.954Z,102022.63
2022-08-02T00:06:12.886Z,102016.59
2022-08-02T00:11:19.746Z,102007.75
2022-08-02T00:16:21.483Z,102002.19
2022-08-02T00:21:39.750Z,101994.47
2022-08-02T00:26:41.695Z,101988.47
2022-08-02T00:31:43.437Z,101987.78
2022-08-02T00:36:47.685Z,101987.47
2022-08-02T00:41:53.006Z,101992.84
2022-08-02T00:46:58.037Z,101991.97
2022-08-02T00:52:00.185Z,101988.63
2022-08-02T00:57:05.284Z,101982.41
2022-08-02T01:02:10.290Z,101986.94
2022-08-02T01:07:31.060Z,101987.47
2022-08-02T01:12:35.175Z,101986.09
2022-08-02T01:18:04.162Z,101993.34
2022-08-02T01:23:12.455Z,101975.72
2022-08-02T01:28:42.706Z,101976.88
2022-08-02T01:34:17.408Z,101994.66
2022-08-02T01:39:26.975Z,101986.09
2022-08-02T01:44:36.750Z,101984.94
2022-08-02T01:49:39.973Z,101988.44
2022-08-02T01:54:43.909Z,101995.31
2022-08-02T01:59:49.111Z,101977.03
2022-08-02T02:04:54.030Z,101973.69
2022-08-02T02:09:59.011Z,101975.34
2022-08-02T02:15:02.577Z,101979.22
2022-08-02T02:20:09.189Z,101983.22
2022-08-02T02:25:19.487Z,101979.66
2022-08-02T02:30:33.078Z,101957.34
2022-08-02T02:35:41.654Z,101943.25
2022-08-02T02:40:48.098Z,101942.91
2022-08-02T02:45:50.116Z,101922.78
2022-08-02T02:50:52.272Z,101918.59
2022-08-02T02:56:02.550Z,101896.63
2022-08-02T03:01:55.798Z,101896.25
2022-08-02T03:06:45.281Z,101894.25
2022-08-02T03:11:49.610Z,101906.47
2022-08-02T03:16:53.565Z,101916.38
2022-08-02T03:21:58.315Z,101915.16
2022-08-02T03:27:00.073Z,101910.31
2022-08-02T03:32:04.561Z,101919.66
2022-08-02T03:37:08.671Z,101910.59
2022-08-02T03:42:15.505Z,101915.75
2022-08-02T03:47:22.339Z,101918.09
2022-08-02T03:52:27.269Z,101905.16
2022-08-02T03:57:31.384Z,101913.53
2022-08-02T04:02:36.062Z,101908.31
2022-08-02T04:08:32.556Z,101897.13
2022-08-02T04:13:10.617Z,101893.56
2022-08-02T04:18:12.570Z,101894.25
2022-08-02T04:23:15.361Z,101892.63
2022-08-02T04:28:18.451Z,101914.59
2022-08-02T04:33:22.852Z,101916.16
2022-08-02T04:38:25.012Z,101918.53
2022-08-02T04:43:26.772Z,101907.00
2022-08-02T04:48:32.547Z,101904.66
2022-08-02T04:53:40.519Z,101889.94
2022-08-02T04:58:47.084Z,101890.94
2022-08-02T05:03:54.348Z,101898.19
2022-08-02T05:08:58.514Z,101896.34
2022-08-02T05:14:05.432Z,101902.84
2022-08-02T05:19:08.068Z,101912.38
2022-08-02T05:24:12.441Z,101921.03
2022-08-02T05:29:16.698Z,101924.16
2022-08-02T05:34:18.419Z,101925.28
2022-08-02T05:39:22.496Z,101918.88
2022-08-02T05:44:27.314Z,101924.53
2022-08-02T05:49:33.341Z,101906.78
2022-08-02T05:54:49.465Z,101909.53
2022-08-02T06:00:05.053Z,101899.84
2022-08-02T06:05:22.639Z,101881.41
2022-08-02T06:10:28.893Z,101863.34
2022-08-02T06:15:33.903Z,101877.34
2022-08-02T06:20:42.752Z,101879.63
2022-08-02T06:25:49.714Z,101874.44
2022-08-02T06:30:55.917Z,101868.25
2022-08-02T06:36:19.404Z,101862.03
2022-08-02T06:41:24.073Z,101889.59
2022-08-02T06:47:09.170Z,101895.72
2022-08-02T06:51:52.417Z,101871.81
2022-08-02T06:56:59.109Z,101869.28
2022-08-02T07:02:03.345Z,101858.63
2022-08-02T07:07:12.688Z,101841.56
2022-08-02T07:12:14.608Z,101851.00
2022-08-02T07:17:19.065Z,101834.69
2022-08-02T07:22:27.009Z,101837.31
2022-08-02T07:27:32.223Z,101821.88
2022-08-02T07:32:34.183Z,101822.41
2022-08-02T07:37:54.983Z,101828.13
2022-08-02T07:43:04.609Z,101830.06
2022-08-02T07:48:08.564Z,101828.06
2022-08-02T07:53:10.352Z,101825.66
2022-08-02T07:58:14.495Z,101817.41
2022-08-02T08:03:16.224Z,101813.91
2022-08-02T08:08:24.968Z,101808.56
2022-08-02T08:13:27.804Z,101804.41
2022-08-02T08:18:32.278Z,101793.19
2022-08-02T08:23:42.137Z,101813.22
2022-08-02T08:28:43.956Z,101812.97
2022-08-02T08:33:49.563Z,101800.00
2022-08-02T08:38:52.550Z,101805.78
2022-08-02T08:43:59.195Z,101789.06
2022-08-02T08:49:06.792Z,101785.25
2022-08-02T08:54:15.868Z,101797.22
2022-08-02T08:59:21.146Z,101788.03
2022-08-02T09:04:23.621Z,101794.75
2022-08-02T09:09:25.548Z,101779.06
2022-08-02T09:14:29.378Z,101765.66
2022-08-02T09:19:46.255Z,101765.25
2022-08-02T09:24:50.443Z,101764.72
2022-08-02T09:30:12.423Z,101785.66
2022-08-02T09:36:05.816Z,101795.09
2022-08-02T09:41:05.731Z,101782.03
2022-08-02T09:46:22.914Z,101780.19
2022-08-02T09:51:32.268Z,101767.63
2022-08-02T09:56:44.685Z,101754.16
2022-08-02T10:01:58.869Z,101749.31
2022-08-02T10:07:15.986Z,101771.75
2022-08-02T10:12:18.515Z,101780.91
2022-08-02T10:17:23.519Z,101771.94
2022-08-02T10:22:25.641Z,101763.66
2022-08-02T10:27:43.256Z,101757.63
2022-08-02T10:32:57.075Z,101734.59
2022-08-02T10:38:08.391Z,101752.84
2022-08-02T10:43:10.126Z,101723.50
2022-08-02T10:48:14.711Z,101716.44
2022-08-02T10:53:34.975Z,101707.47
2022-08-02T10:58:40.248Z,101698.41
2022-08-02T11:03:49.753Z,101706.66
2022-08-02T11:09:33.469Z,101697.34
2022-08-02T11:14:43.298Z,101686.69
2022-08-02T11:20:24.055Z,101693.53
2022-08-02T11:26:00.973Z,101693.59
2022-08-02T11:31:08.940Z,101681.47
2022-08-02T11:36:13.514Z,101684.06
2022-08-02T11:41:46.156Z,101673.34
2022-08-02T11:47:04.561Z,101664.56
2022-08-02T11:52:08.171Z,101656.06
2022-08-02T11:57:22.500Z,101659.38
2022-08-02T12:02:32.667Z,101655.97
2022-08-02T12:07:37.677Z,101651.38
2022-08-02T12:12:58.001Z,101655.69
2022-08-02T12:18:22.919Z,101645.31
2022-08-02T12:23:28.540Z,101640.81
2022-08-02T12:28:34.530Z,101649.56
2022-08-02T12:33:57.476Z,101637.22
2022-08-02T12:39:04.934Z,101645.56
2022-08-02T12:44:19.820Z,101642.06
2022-08-02T12:49:21.846Z,101651.13
2022-08-02T12:54:31.729Z,101640.16
2022-08-02T12:59:38.899Z,101643.38
2022-08-02T13:04:52.405Z,101636.66
2022-08-02T13:10:02.539Z,101632.56
2022-08-02T13:15:12.493Z,101627.28
2022-08-02T13:20:33.951Z,101624.00
2022-08-02T13:25:36.609Z,101610.16
2022-08-02T13:30:39.651Z,101601.97
2022-08-02T13:35:46.173Z,101604.75
2022-08-02T13:41:08.263Z,101604.53
2022-08-02T13:46:11.129Z,101600.88
2022-08-02T13:51:14.853Z,101586.91
2022-08-02T13:56:17.043Z,101587.16
2022-08-02T14:01:20.357Z,101586.31
2022-08-02T14:06:22.538Z,101582.75
2022-08-02T14:11:24.501Z,101577.28
2022-08-02T14:16:32.982Z,101569.03
2022-08-02T14:21:46.756Z,101563.22
2022-08-02T14:26:50.590Z,101556.09
2022-08-02T14:31:52.476Z,101552.78
2022-08-02T14:36:56.406Z,101548.97
2022-08-02T14:42:01.003Z,101541.28
2022-08-02T14:47:05.888Z,101542.88
2022-08-02T14:52:08.205Z,101540.38
2022-08-02T14:57:12.472Z,101538.66
2022-08-02T15:02:14.842Z,101524.66
2022-08-02T15:07:17.075Z,101532.38
2022-08-02T15:12:19.780Z,101524.13
2022-08-02T15:17:22.058Z,101517.25
2022-08-02T15:22:24.865Z,101512.03
2022-08-02T15:27:30.604Z,101501.56
2022-08-02T15:32:37.451Z,101498.00
2022-08-02T15:37:57.803Z,101512.78
2022-08-02T15:43:05.286Z,101520.44
2022-08-02T15:48:10.503Z,101520.38
2022-08-02T15:53:14.042Z,101525.84
2022-08-02T15:58:18.012Z,101505.75
2022-08-02T16:03:28.017Z,101526.53
2022-08-02T16:08:30.655Z,101522.09
2022-08-02T16:13:52.697Z,101521.44
2022-08-02T16:18:56.154Z,101531.53
2022-08-02T16:24:03.076Z,101532.31
2022-08-02T16:29:07.580Z,101541.88
2022-08-02T16:34:09.675Z,101531.03
2022-08-02T16:39:12.021Z,101538.09
2022-08-02T16:50:05.767Z,101530.09
2022-08-02T16:55:12.724Z,101535.06
2022-08-02T17:00:15.564Z,101529.66
2022-08-02T17:05:22.934Z,101529.34
2022-08-02T17:10:37.523Z,101524.34
2022-08-02T17:16:17.081Z,101526.78
2022-08-02T17:21:08.837Z,101535.25
2022-08-02T17:26:15.838Z,101539.59
2022-08-02T17:31:17.837Z,101535.78
2022-08-02T17:36:36.483Z,101552.03
2022-08-02T17:41:49.076Z,101553.84
2022-08-02T17:46:57.510Z,101555.50
2022-08-02T17:52:48.262Z,101558.06
2022-08-02T17:57:56.987Z,101551.56
2022-08-02T18:02:58.298Z,101555.03
2022-08-02T18:08:01.062Z,101558.47
2022-08-02T18:13:09.750Z,101557.03
2022-08-02T18:18:19.182Z,101543.25
2022-08-02T18:23:31.307Z,101535.25
2022-08-02T18:28:45.756Z,101548.28
2022-08-02T18:34:07.145Z,101552.72
2022-08-02T18:39:21.534Z,101544.69
2022-08-02T18:44:33.520Z,101541.34
2022-08-02T18:49:50.399Z,101536.00
2022-08-02T18:55:10.495Z,101536.63
2022-08-02T19:00:32.316Z,101533.50
2022-08-02T19:05:51.775Z,101540.59
2022-08-02T19:11:02.472Z,101543.47
2022-08-02T19:16:07.693Z,101540.34
2022-08-02T19:21:11.868Z,101540.50
2022-08-02T19:26:13.597Z,101536.25
2022-08-02T19:31:19.167Z,101533.13
2022-08-02T19:36:21.159Z,101537.34
2022-08-02T19:41:27.283Z,101536.44
2022-08-02T19:46:49.195Z,101544.31
2022-08-02T19:51:57.407Z,101537.34
2022-08-02T19:56:59.130Z,101543.81
2022-08-02T20:02:06.263Z,101541.50
2022-08-02T20:07:12.908Z,101543.28
2022-08-02T20:12:26.359Z,101540.47
2022-08-02T20:17:31.595Z,101541.97
2022-08-02T20:22:55.201Z,101549.25
2022-08-02T20:27:59.510Z,101546.31
2022-08-02T20:33:22.137Z,101547.78
2022-08-02T20:38:24.978Z,101550.28
2022-08-02T20:43:31.319Z,101543.34
2022-08-02T20:48:39.563Z,101539.66
2022-08-02T20:53:56.198Z,101534.28
2022-08-02T20:59:03.698Z,101534.63
2022-08-02T21:04:13.259Z,101542.31
2022-08-02T21:09:52.513Z,101543.16
2022-08-02T21:14:45.428Z,101538.28
2022-08-02T21:19:52.697Z,101530.97
2022-08-02T21:24:54.423Z,101530.97
2022-08-02T21:30:00.356Z,101516.91
2022-08-02T21:35:06.175Z,101520.56
2022-08-02T21:40:15.034Z,101525.91
2022-08-02T21:45:20.037Z,101524.22
2022-08-02T21:50:22.049Z,101525.28
2022-08-02T21:56:00.612Z,101521.97
2022-08-02T22:00:49.801Z,101527.88
2022-08-02T22:05:54.201Z,101516.88
2022-08-02T22:11:03.812Z,101524.03
2022-08-02T22:16:05.695Z,101518.38
2022-08-02T22:21:14.166Z,101518.00
2022-08-02T22:26:21.816Z,101519.41
2022-08-02T22:31:41.157Z,101522.44
2022-08-02T22:36:46.409Z,101517.31
2022-08-02T22:42:05.610Z,101526.50
2022-08-02T22:47:14.647Z,101527.78
2022-08-02T22:52:19.264Z,101533.31
2022-08-02T22:57:30.514Z,101537.19
2022-08-02T22:58:34.616Z,101543.81
2022-08-02T23:02:36.098Z,101531.84
2022-08-02T23:07:42.305Z,101535.00
2022-08-02T23:12:46.522Z,101537.38
2022-08-02T23:18:09.470Z,101531.13
2022-08-02T23:23:12.174Z,101531.22
2022-08-02T23:28:14.394Z,101530.69
2022-08-02T23:33:22.055Z,101536.19
2022-08-02T23:38:23.814Z,101531.66
2022-08-02T23:43:25.545Z,101525.72
2022-08-02T23:48:29.571Z,101534.16
2022-08-02T23:53:35.982Z,101535.19
2022-08-02T23:58:43.662Z,101522.09
